createdAt,value
2018-08-10T00:01:44.053Z,89.60
2018-08-10T00:04:12.476Z,89.40
2018-08-10T00:06:40.859Z,89.50
2018-08-10T00:09:10.881Z,89.30
2018-08-10T00:11:39.454Z,89.10
2018-08-10T00:14:07.877Z,89.00
2018-08-10T00:16:36.242Z,88.20
2018-08-10T00:19:04.628Z,88.10
2018-08-10T00:21:32.973Z,88.00
2018-08-10T00:24:01.338Z,88.00
2018-08-10T00:26:29.765Z,87.80
2018-08-10T00:28:58.149Z,87.40
2018-08-10T00:31:26.534Z,87.40
2018-08-10T00:33:54.892Z,87.40
2018-08-10T00:36:23.261Z,87.60
2018-08-10T00:38:51.649Z,87.50
2018-08-10T00:41:20.039Z,86.90
2018-08-10T00:43:48.426Z,87.10
2018-08-10T00:46:16.780Z,86.70
2018-08-10T00:48:45.129Z,86.60
2018-08-10T00:51:13.782Z,86.50
2018-08-10T00:53:42.200Z,86.20
2018-08-10T00:56:10.537Z,85.90
2018-08-10T00:58:38.910Z,86.70
2018-08-10T01:01:07.269Z,86.40
2018-08-10T01:03:35.616Z,86.50
2018-08-10T01:06:04.011Z,86.80
2018-08-10T01:08:32.450Z,87.00
2018-08-10T01:11:00.842Z,87.30
2018-08-10T01:13:29.307Z,86.90
2018-08-10T01:15:57.678Z,86.60
2018-08-10T01:18:26.053Z,86.40
2018-08-10T01:20:54.426Z,86.40
2018-08-10T01:23:22.796Z,85.60
2018-08-10T01:25:51.177Z,85.90
2018-08-10T01:28:19.644Z,85.90
2018-08-10T01:30:48.023Z,85.90
2018-08-10T01:33:16.475Z,85.70
2018-08-10T01:35:44.886Z,85.90
2018-08-10T01:38:13.457Z,85.80
2018-08-10T01:40:41.878Z,86.10
2018-08-10T01:43:10.284Z,86.00
2018-08-10T01:45:38.879Z,85.90
2018-08-10T01:48:07.346Z,85.40
2018-08-10T01:50:35.738Z,85.50
2018-08-10T01:53:04.176Z,85.40
2018-08-10T01:55:32.578Z,85.40
2018-08-10T01:58:00.990Z,85.80
2018-08-10T02:00:29.382Z,85.70
2018-08-10T02:02:57.840Z,86.20
2018-08-10T02:05:26.398Z,86.00
2018-08-10T02:07:54.854Z,86.10
2018-08-10T02:10:23.263Z,86.50
2018-08-10T02:12:54.956Z,86.30
2018-08-10T02:15:23.378Z,86.70
2018-08-10T02:17:51.780Z,86.40
2018-08-10T02:20:21.764Z,86.40
2018-08-10T02:22:50.178Z,86.70
2018-08-10T02:25:20.203Z,87.40
2018-08-10T02:27:49.382Z,87.40
2018-08-10T02:30:18.986Z,87.60
2018-08-10T02:32:48.470Z,87.60
2018-08-10T02:35:16.943Z,87.50
2018-08-10T02:37:45.366Z,87.50
2018-08-10T02:40:19.739Z,87.60
2018-08-10T02:42:48.939Z,87.20
2018-08-10T02:45:17.742Z,87.10
2018-08-10T02:47:46.904Z,87.50
2018-08-10T02:50:15.383Z,87.20
2018-08-10T02:52:43.964Z,87.40
2018-08-10T02:55:12.810Z,86.60
2018-08-10T02:57:41.643Z,86.20
2018-08-10T03:00:11.971Z,86.30
2018-08-10T03:02:40.415Z,86.40
2018-08-10T03:05:09.484Z,86.80
2018-08-10T03:07:38.208Z,87.10
2018-08-10T03:10:08.024Z,86.80
2018-08-10T03:12:36.475Z,87.40
2018-08-10T03:15:07.126Z,87.50
2018-08-10T03:17:35.560Z,88.00
2018-08-10T03:20:04.681Z,88.00
2018-08-10T03:22:33.290Z,87.90
2018-08-10T03:25:01.664Z,87.70
2018-08-10T03:27:30.061Z,88.10
2018-08-10T03:29:58.469Z,87.90
2018-08-10T03:32:26.850Z,88.40
2018-08-10T03:34:55.259Z,88.80
2018-08-10T03:37:23.645Z,88.60
2018-08-10T03:39:52.027Z,88.00
2018-08-10T03:42:20.587Z,88.00
2018-08-10T03:44:48.962Z,88.60
2018-08-10T03:47:17.370Z,89.10
2018-08-10T03:49:45.796Z,89.00
2018-08-10T03:52:14.166Z,88.90
2018-08-10T03:54:42.592Z,88.90
2018-08-10T03:57:10.968Z,89.10
2018-08-10T03:59:39.330Z,88.80
2018-08-10T04:02:07.769Z,88.60
2018-08-10T04:04:36.117Z,88.40
2018-08-10T04:07:04.523Z,88.30
2018-08-10T04:09:32.902Z,88.30
2018-08-10T04:12:01.242Z,88.10
2018-08-10T04:14:29.624Z,87.90
2018-08-10T04:16:58.020Z,87.80
2018-08-10T04:19:26.437Z,87.40
2018-08-10T04:21:54.860Z,87.10
2018-08-10T04:24:23.275Z,87.00
2018-08-10T04:26:51.642Z,86.80
2018-08-10T04:29:20.035Z,86.90
2018-08-10T04:31:48.390Z,86.30
2018-08-10T04:34:16.757Z,87.20
2018-08-10T04:36:45.124Z,87.00
2018-08-10T04:39:14.308Z,87.20
2018-08-10T04:41:43.187Z,86.90
2018-08-10T04:44:11.824Z,87.10
2018-08-10T04:46:40.194Z,87.60
2018-08-10T04:49:08.976Z,88.30
2018-08-10T04:51:37.498Z,88.30
2018-08-10T04:54:06.026Z,88.20
2018-08-10T04:56:34.502Z,89.30
2018-08-10T04:59:03.046Z,88.50
2018-08-10T05:01:31.418Z,88.50
2018-08-10T05:03:59.798Z,88.40
2018-08-10T05:06:28.170Z,89.20
2018-08-10T05:08:56.529Z,89.00
2018-08-10T05:11:24.975Z,89.10
2018-08-10T05:13:53.348Z,88.70
2018-08-10T05:16:21.721Z,88.70
2018-08-10T05:18:50.118Z,89.00
2018-08-10T05:21:18.541Z,89.80
2018-08-10T05:23:47.086Z,89.60
2018-08-10T05:26:15.443Z,89.60
2018-08-10T05:28:43.857Z,90.00
2018-08-10T05:31:12.271Z,90.30
2018-08-10T05:33:40.644Z,90.20
2018-08-10T05:36:09.225Z,90.30
2018-08-10T05:38:37.678Z,90.40
2018-08-10T05:41:06.078Z,90.30
2018-08-10T05:43:34.600Z,90.20
2018-08-10T05:46:02.970Z,90.30
2018-08-10T05:48:36.612Z,90.30
2018-08-10T05:51:05.137Z,90.30
2018-08-10T05:53:33.407Z,90.10
2018-08-10T05:56:01.759Z,90.00
2018-08-10T05:58:30.448Z,89.70
2018-08-10T06:00:58.794Z,89.50
2018-08-10T06:03:27.895Z,89.40
2018-08-10T06:05:56.254Z,90.00
2018-08-10T06:08:24.655Z,89.50
2018-08-10T06:10:53.071Z,89.40
2018-08-10T06:13:21.453Z,89.60
2018-08-10T06:15:49.809Z,89.30
2018-08-10T06:18:18.171Z,89.40
2018-08-10T06:20:46.558Z,89.40
2018-08-10T06:23:14.960Z,89.70
2018-08-10T06:25:43.319Z,89.60
2018-08-10T06:28:11.885Z,89.30
2018-08-10T06:30:40.283Z,89.20
2018-08-10T06:33:08.663Z,89.40
2018-08-10T06:35:37.044Z,89.80
2018-08-10T06:38:05.555Z,88.70
2018-08-10T06:40:33.988Z,88.30
2018-08-10T06:43:02.717Z,88.70
2018-08-10T06:45:44.552Z,88.50
2018-08-10T06:48:12.927Z,88.30
2018-08-10T06:50:41.327Z,88.40
2018-08-10T06:53:09.966Z,88.20
2018-08-10T06:55:38.358Z,88.00
2018-08-10T06:58:06.783Z,88.60
2018-08-10T07:00:35.226Z,88.30
2018-08-10T07:03:03.603Z,88.20
2018-08-10T07:05:31.991Z,87.60
2018-08-10T07:08:00.545Z,88.00
2018-08-10T07:10:28.945Z,88.10
2018-08-10T07:12:57.356Z,87.80
2018-08-10T07:15:25.911Z,86.70
2018-08-10T07:17:54.287Z,86.80
2018-08-10T07:20:22.702Z,86.30
2018-08-10T07:22:51.154Z,84.30
2018-08-10T07:25:19.522Z,82.30
2018-08-10T07:27:47.886Z,78.80
2018-08-10T07:30:16.266Z,76.50
2018-08-10T07:32:44.619Z,74.40
2018-08-10T07:35:13.010Z,72.80
2018-08-10T07:37:41.418Z,71.90
2018-08-10T07:40:09.842Z,71.00
2018-08-10T07:42:38.224Z,69.50
2018-08-10T07:45:06.785Z,69.50
2018-08-10T07:47:35.123Z,68.00
2018-08-10T07:50:03.504Z,68.60
2018-08-10T07:52:32.096Z,69.20
2018-08-10T07:55:00.426Z,67.80
2018-08-10T07:57:28.779Z,67.00
2018-08-10T07:59:57.186Z,66.70
2018-08-10T08:02:25.530Z,66.70
2018-08-10T08:04:53.934Z,67.70
2018-08-10T08:07:22.351Z,66.30
2018-08-10T08:09:50.729Z,65.60
2018-08-10T08:12:19.268Z,65.00
2018-08-10T08:14:47.650Z,65.00
2018-08-10T08:17:16.046Z,65.60
2018-08-10T08:19:44.440Z,65.80
2018-08-10T08:22:19.483Z,65.00
2018-08-10T08:24:48.109Z,65.50
2018-08-10T08:27:17.639Z,66.30
2018-08-10T08:29:46.043Z,66.60
2018-08-10T08:32:14.443Z,65.70
2018-08-10T08:34:43.929Z,65.20
2018-08-10T08:37:12.350Z,65.70
2018-08-10T08:40:15.806Z,65.90
2018-08-10T08:42:45.266Z,68.00
2018-08-10T08:46:17.092Z,67.60
2018-08-10T08:48:47.493Z,67.50
2018-08-10T08:51:20.367Z,66.90
2018-08-10T08:56:06.431Z,66.60
2018-08-10T08:58:35.516Z,65.80
2018-08-10T09:01:04.564Z,66.70
2018-08-10T09:04:42.922Z,67.00
2018-08-10T09:07:11.357Z,66.90
2018-08-10T09:09:40.618Z,66.50
2018-08-10T09:12:09.035Z,67.10
2018-08-10T09:14:43.452Z,68.60
2018-08-10T09:17:12.164Z,66.50
2018-08-10T09:19:41.287Z,68.50
2018-08-10T09:22:09.992Z,70.20
2018-08-10T09:24:38.526Z,70.00
2018-08-10T09:27:06.995Z,69.90
2018-08-10T09:29:35.764Z,70.10
2018-08-10T09:32:04.694Z,70.70
2018-08-10T09:34:33.204Z,71.30
2018-08-10T09:37:02.072Z,71.70
2018-08-10T09:39:40.599Z,71.70
2018-08-10T09:42:09.063Z,73.50
2018-08-10T09:44:37.468Z,73.30
2018-08-10T09:47:06.610Z,71.60
2018-08-10T09:49:39.424Z,72.30
2018-08-10T09:52:07.895Z,72.20
2018-08-10T09:54:47.581Z,72.10
2018-08-10T09:57:15.970Z,71.80
2018-08-10T09:59:44.416Z,71.00
2018-08-10T10:02:18.043Z,70.90
2018-08-10T10:04:46.451Z,70.80
2018-08-10T10:07:14.968Z,72.10
2018-08-10T10:09:43.338Z,72.50
2018-08-10T10:12:11.743Z,71.50
2018-08-10T10:14:40.306Z,72.00
2018-08-10T10:17:08.654Z,72.60
2018-08-10T10:19:37.029Z,71.70
2018-08-10T10:22:05.606Z,71.50
2018-08-10T10:24:33.991Z,70.90
2018-08-10T10:27:02.376Z,71.60
2018-08-10T10:29:30.904Z,70.90
2018-08-10T10:31:59.322Z,70.90
2018-08-10T10:34:27.703Z,69.90
2018-08-10T10:36:56.245Z,70.70
2018-08-10T10:39:24.592Z,70.70
2018-08-10T10:41:53.008Z,71.50
2018-08-10T10:44:21.439Z,71.90
2018-08-10T10:46:49.838Z,71.30
2018-08-10T10:49:18.242Z,71.70
2018-08-10T10:51:46.739Z,71.90
2018-08-10T10:54:15.171Z,71.60
2018-08-10T10:56:43.781Z,71.80
2018-08-10T10:59:12.114Z,72.40
2018-08-10T11:01:40.524Z,73.10
2018-08-10T11:04:08.931Z,73.00
2018-08-10T11:06:37.883Z,73.40
2018-08-10T11:09:07.774Z,73.20
2018-08-10T11:11:36.255Z,73.60
2018-08-10T11:14:04.635Z,74.30
2018-08-10T11:16:33.131Z,73.40
2018-08-10T11:19:01.550Z,74.00
2018-08-10T11:21:29.970Z,73.50
2018-08-10T11:23:58.710Z,73.20
2018-08-10T11:26:27.069Z,73.90
2018-08-10T11:28:55.488Z,74.40
2018-08-10T11:31:24.050Z,74.00
2018-08-10T11:33:52.461Z,72.90
2018-08-10T11:36:20.838Z,73.50
2018-08-10T11:38:49.255Z,73.70
2018-08-10T11:41:17.655Z,74.00
2018-08-10T11:43:46.351Z,74.50
2018-08-10T11:46:14.790Z,74.60
2018-08-10T11:48:43.202Z,74.60
2018-08-10T11:51:11.639Z,74.40
2018-08-10T11:53:40.074Z,74.60
2018-08-10T11:56:08.455Z,74.60
2018-08-10T11:58:36.882Z,75.20
2018-08-10T12:01:05.277Z,75.00
2018-08-10T12:03:33.698Z,73.00
2018-08-10T12:06:02.289Z,73.00
2018-08-10T12:08:31.122Z,73.00
2018-08-10T12:10:59.689Z,73.20
2018-08-10T12:13:28.146Z,72.40
2018-08-10T12:15:56.561Z,72.90
2018-08-10T12:18:25.003Z,73.70
2018-08-10T12:20:53.415Z,74.10
2018-08-10T12:23:21.819Z,73.40
2018-08-10T12:25:50.206Z,73.60
2018-08-10T12:28:18.591Z,73.90
2018-08-10T12:30:47.002Z,74.80
2018-08-10T12:33:15.389Z,72.50
2018-08-10T12:35:43.802Z,72.30
2018-08-10T12:38:12.242Z,71.80
2018-08-10T12:40:40.656Z,73.10
2018-08-10T12:43:09.114Z,72.30
2018-08-10T12:45:37.523Z,73.10
2018-08-10T12:48:06.156Z,73.80
2018-08-10T12:50:34.778Z,73.70
2018-08-10T12:53:03.106Z,72.40
2018-08-10T12:55:31.460Z,71.40
2018-08-10T12:57:59.863Z,72.20
2018-08-10T13:00:28.243Z,72.10
2018-08-10T13:02:56.685Z,71.90
2018-08-10T13:05:25.216Z,72.60
2018-08-10T13:07:53.610Z,70.10
2018-08-10T13:10:21.977Z,70.20
2018-08-10T13:12:50.378Z,70.40
2018-08-10T13:15:18.777Z,70.00
2018-08-10T13:17:47.170Z,69.80
2018-08-10T13:20:15.555Z,69.90
2018-08-10T13:22:44.305Z,70.70
2018-08-10T13:25:12.678Z,70.90
2018-08-10T13:27:41.075Z,71.40
2018-08-10T13:30:11.137Z,70.10
2018-08-10T13:32:39.505Z,69.30
2018-08-10T13:35:07.981Z,69.80
2018-08-10T13:37:36.390Z,69.30
2018-08-10T13:40:05.252Z,69.00
2018-08-10T13:42:33.721Z,68.80
2018-08-10T13:45:02.124Z,68.80
2018-08-10T13:47:30.716Z,68.60
2018-08-10T13:49:59.315Z,68.60
2018-08-10T13:52:27.714Z,69.20
2018-08-10T13:54:56.124Z,67.80
2018-08-10T13:57:24.690Z,68.20
2018-08-10T13:59:53.142Z,67.60
2018-08-10T14:02:21.584Z,67.40
2018-08-10T14:04:50.200Z,67.00
2018-08-10T14:07:18.635Z,67.50
2018-08-10T14:09:47.051Z,67.30
2018-08-10T14:12:15.497Z,68.10
2018-08-10T14:14:43.894Z,67.10
2018-08-10T14:17:12.339Z,67.10
2018-08-10T14:19:40.794Z,67.60
2018-08-10T14:22:09.286Z,67.60
2018-08-10T14:24:37.706Z,67.50
2018-08-10T14:27:06.623Z,67.50
2018-08-10T14:29:35.118Z,67.70
2018-08-10T14:32:03.547Z,67.50
2018-08-10T14:34:32.006Z,67.00
2018-08-10T14:37:00.413Z,67.50
2018-08-10T14:39:28.810Z,66.70
2018-08-10T14:41:57.403Z,66.20
2018-08-10T14:44:25.813Z,66.20
2018-08-10T14:46:54.262Z,66.80
2018-08-10T14:49:22.630Z,67.10
2018-08-10T14:51:51.026Z,66.70
2018-08-10T14:54:19.425Z,66.40
2018-08-10T14:56:47.847Z,65.40
2018-08-10T14:59:16.241Z,65.80
2018-08-10T15:01:44.600Z,66.00
2018-08-10T15:04:13.040Z,66.50
2018-08-10T15:06:41.591Z,64.90
2018-08-10T15:09:12.381Z,64.70
2018-08-10T15:11:41.010Z,64.70
2018-08-10T15:14:09.896Z,65.40
2018-08-10T15:16:38.595Z,64.50
2018-08-10T15:19:07.118Z,65.00
2018-08-10T15:21:35.507Z,65.70
2018-08-10T15:24:03.910Z,66.00
2018-08-10T15:26:32.348Z,65.00
2018-08-10T15:29:00.758Z,63.70
2018-08-10T15:31:29.134Z,64.60
2018-08-10T15:33:57.561Z,65.30
2018-08-10T15:36:25.917Z,65.50
2018-08-10T15:38:54.431Z,64.80
2018-08-10T15:41:22.838Z,65.20
2018-08-10T15:43:51.232Z,65.50
2018-08-10T15:46:19.803Z,64.40
2018-08-10T15:48:48.185Z,64.50
2018-08-10T15:51:16.578Z,64.60
2018-08-10T15:53:45.007Z,64.30
2018-08-10T15:56:13.466Z,64.50
2018-08-10T15:58:42.087Z,64.80
2018-08-10T16:01:10.465Z,64.50
2018-08-10T16:03:38.837Z,66.00
2018-08-10T16:06:07.508Z,66.40
2018-08-10T16:08:36.009Z,65.80
2018-08-10T16:11:04.403Z,66.20
2018-08-10T16:13:34.546Z,64.80
2018-08-10T16:16:02.922Z,65.20
2018-08-10T16:18:31.350Z,65.60
2018-08-10T16:20:59.726Z,66.10
2018-08-10T16:23:28.125Z,65.90
2018-08-10T16:25:56.501Z,66.50
2018-08-10T16:28:24.900Z,65.90
2018-08-10T16:30:53.258Z,66.30
2018-08-10T16:33:21.855Z,65.90
2018-08-10T16:35:50.243Z,66.30
2018-08-10T16:38:18.624Z,65.40
2018-08-10T16:40:47.221Z,68.40
2018-08-10T16:43:15.584Z,66.00
2018-08-10T16:45:43.966Z,65.90
2018-08-10T16:48:12.426Z,65.20
2018-08-10T16:50:40.891Z,66.00
2018-08-10T16:53:09.363Z,65.30
2018-08-10T16:55:37.922Z,65.20
2018-08-10T16:58:06.438Z,64.40
2018-08-10T17:00:34.834Z,65.50
2018-08-10T17:03:03.452Z,65.40
2018-08-10T17:05:31.849Z,64.80
2018-08-10T17:08:00.258Z,64.00
2018-08-10T17:10:28.661Z,64.00
2018-08-10T17:12:57.118Z,64.00
2018-08-10T17:15:25.559Z,65.00
2018-08-10T17:17:54.147Z,64.30
2018-08-10T17:20:22.552Z,64.20
2018-08-10T17:22:50.978Z,64.50
2018-08-10T17:25:20.547Z,65.10
2018-08-10T17:27:48.991Z,65.30
2018-08-10T17:30:18.641Z,63.50
2018-08-10T17:32:47.174Z,63.40
2018-08-10T17:35:16.471Z,63.40
2018-08-10T17:37:45.910Z,63.30
2018-08-10T17:40:14.348Z,63.20
2018-08-10T17:42:43.079Z,63.70
2018-08-10T17:45:13.543Z,63.90
2018-08-10T17:47:42.031Z,63.10
2018-08-10T17:50:13.983Z,63.20
2018-08-10T17:52:44.919Z,63.70
2018-08-10T17:55:14.287Z,63.50
2018-08-10T17:57:42.746Z,64.10
2018-08-10T18:00:15.163Z,63.60
2018-08-10T18:02:43.771Z,64.40
2018-08-10T18:05:13.485Z,65.00
2018-08-10T18:07:42.154Z,64.80
2018-08-10T18:10:11.338Z,64.10
2018-08-10T18:12:40.718Z,65.20
2018-08-10T18:15:11.464Z,64.40
2018-08-10T18:17:40.535Z,64.80
2018-08-10T18:20:12.813Z,64.80
2018-08-10T18:22:41.302Z,64.70
2018-08-10T18:25:11.224Z,64.90
2018-08-10T18:27:40.356Z,64.70
2018-08-10T18:30:12.842Z,65.00
2018-08-10T18:32:41.258Z,64.90
2018-08-10T18:35:10.331Z,65.20
2018-08-10T18:37:39.766Z,66.30
2018-08-10T18:40:10.594Z,65.60
2018-08-10T18:42:39.872Z,65.60
2018-08-10T18:45:09.178Z,65.60
2018-08-10T18:47:38.612Z,65.80
2018-08-10T18:50:07.918Z,65.70
2018-08-10T18:52:36.650Z,65.80
2018-08-10T18:55:05.571Z,66.80
2018-08-10T18:57:34.360Z,66.30
2018-08-10T19:00:02.892Z,66.70
2018-08-10T19:02:31.292Z,66.70
2018-08-10T19:04:59.679Z,66.70
2018-08-10T19:07:28.091Z,66.80
2018-08-10T19:09:56.474Z,67.10
2018-08-10T19:12:24.874Z,67.10
2018-08-10T19:14:53.247Z,67.40
2018-08-10T19:17:21.624Z,67.40
2018-08-10T19:19:50.019Z,67.60
2018-08-10T19:22:18.409Z,67.80
2018-08-10T19:24:46.817Z,68.30
2018-08-10T19:27:15.291Z,68.70
2018-08-10T19:29:43.755Z,68.40
2018-08-10T19:32:12.177Z,68.10
2018-08-10T19:34:40.592Z,68.10
2018-08-10T19:37:09.019Z,68.60
2018-08-10T19:39:37.396Z,68.50
2018-08-10T19:42:05.762Z,68.50
2018-08-10T19:44:34.355Z,68.60
2018-08-10T19:47:02.743Z,68.90
2018-08-10T19:49:31.139Z,69.20
2018-08-10T19:51:59.546Z,69.20
2018-08-10T19:54:27.894Z,69.30
2018-08-10T19:56:56.410Z,69.30
2018-08-10T19:59:24.778Z,69.30
2018-08-10T20:01:53.178Z,69.10
2018-08-10T20:04:21.695Z,69.50
2018-08-10T20:06:50.085Z,69.70
2018-08-10T20:09:18.446Z,69.80
2018-08-10T20:11:46.830Z,70.00
2018-08-10T20:14:15.253Z,70.00
2018-08-10T20:16:43.629Z,70.80
2018-08-10T20:19:12.086Z,70.40
2018-08-10T20:21:40.504Z,70.80
2018-08-10T20:24:08.962Z,70.60
2018-08-10T20:26:37.391Z,70.70
2018-08-10T20:29:05.963Z,70.70
2018-08-10T20:31:34.498Z,70.80
2018-08-10T20:34:02.890Z,70.80
2018-08-10T20:36:31.275Z,70.90
2018-08-10T20:38:59.706Z,70.70
2018-08-10T20:41:28.946Z,70.90
2018-08-10T20:43:57.478Z,71.00
2018-08-10T20:46:25.891Z,71.10
2018-08-10T20:48:54.257Z,71.60
2018-08-10T20:51:22.628Z,71.20
2018-08-10T20:53:51.011Z,70.70
2018-08-10T20:56:19.402Z,70.40
2018-08-10T20:58:47.750Z,70.60
2018-08-10T21:01:16.133Z,71.00
2018-08-10T21:03:44.731Z,70.60
2018-08-10T21:06:13.177Z,70.80
2018-08-10T21:08:41.464Z,71.30
2018-08-10T21:11:10.001Z,71.30
2018-08-10T21:13:38.393Z,71.20
2018-08-10T21:16:06.821Z,71.40
2018-08-10T21:18:35.337Z,72.10
2018-08-10T21:21:03.724Z,72.00
2018-08-10T21:23:32.117Z,72.10
2018-08-10T21:26:00.547Z,72.10
2018-08-10T21:28:28.922Z,72.00
2018-08-10T21:30:57.298Z,71.90
2018-08-10T21:33:25.863Z,72.20
2018-08-10T21:35:54.205Z,72.10
2018-08-10T21:38:22.558Z,72.50
2018-08-10T21:40:50.951Z,72.40
2018-08-10T21:43:19.369Z,72.10
2018-08-10T21:45:47.750Z,72.10
2018-08-10T21:48:16.145Z,72.40
2018-08-10T21:50:44.576Z,72.10
2018-08-10T21:53:12.994Z,73.00
2018-08-10T21:55:41.367Z,72.50
2018-08-10T21:58:09.766Z,72.60
2018-08-10T22:00:52.085Z,72.20
2018-08-10T22:03:21.888Z,72.10
2018-08-10T22:05:50.488Z,72.60
2018-08-10T22:08:19.826Z,72.50
2018-08-10T22:10:48.447Z,72.90
2018-08-10T22:13:22.248Z,73.20
2018-08-10T22:15:56.059Z,73.40
2018-08-10T22:18:29.885Z,73.30
2018-08-10T22:20:58.491Z,73.40
2018-08-10T22:23:28.039Z,73.50
2018-08-10T22:25:57.425Z,73.80
2018-08-10T22:28:25.869Z,73.80
2018-08-10T22:30:54.310Z,73.90
2018-08-10T22:33:22.674Z,73.60
2018-08-10T22:35:51.070Z,73.90
2018-08-10T22:38:19.482Z,73.70
2018-08-10T22:40:47.846Z,73.90
2018-08-10T22:43:16.242Z,74.50
2018-08-10T22:45:44.678Z,73.80
2018-08-10T22:48:13.266Z,73.90
2018-08-10T22:50:41.690Z,74.00
2018-08-10T22:53:10.171Z,74.10
2018-08-10T22:55:38.661Z,74.20
2018-08-10T22:58:07.061Z,74.30
2018-08-10T23:00:35.673Z,74.90
2018-08-10T23:03:04.156Z,75.00
2018-08-10T23:05:32.521Z,75.40
2018-08-10T23:08:00.976Z,75.80
2018-08-10T23:10:29.399Z,76.30
2018-08-10T23:12:57.858Z,76.50
2018-08-10T23:15:26.281Z,76.80
2018-08-10T23:17:54.721Z,76.80
2018-08-10T23:20:23.347Z,77.10
2018-08-10T23:22:51.807Z,77.00
2018-08-10T23:25:20.190Z,77.10
2018-08-10T23:27:48.647Z,77.50
2018-08-10T23:30:17.146Z,77.60
2018-08-10T23:32:46.112Z,77.60
2018-08-10T23:35:14.571Z,77.40
2018-08-10T23:37:43.019Z,77.60
2018-08-10T23:40:13.973Z,77.70
2018-08-10T23:42:42.738Z,77.90
2018-08-10T23:45:12.187Z,78.00
2018-08-10T23:47:41.334Z,78.00
2018-08-10T23:50:12.659Z,78.20
2018-08-10T23:52:41.826Z,78.30
2018-08-10T23:55:10.759Z,78.40
2018-08-10T23:57:40.257Z,78.60
